Time;durP1;ratioP1;P1;durP2;ratioP2;P2;SDS_P1;SDS_P2;PMS_P1;PMS_P2;Temp;Humidity;BMP_temperature;BMP_pressure;BME280_temperature;BME280_humidity;BME280_pressure;Samples;Min_cycle;Max_cycle;Signal;HPM_P1;HPM_P2
2022/02/09 00:00:24;;;;;;;27.73;24.90;;;;;;;4.71;100.00;99655.09;2090902;28;20603;-70
2022/02/09 00:01:34;;;;;;;29.75;26.58;;;;;;;4.72;100.00;99643.47;2090740;28;20249;-70
2022/02/09 00:02:47;;;;;;;28.67;25.77;;;;;;;4.83;100.00;99666.34;2091596;28;20198;-71
2022/02/09 00:04:00;;;;;;;28.77;25.85;;;;;;;4.84;100.00;99636.22;2099419;28;20174;-70
2022/02/09 00:05:21;;;;;;;30.50;27.23;;;;;;;4.80;100.00;99645.69;2098425;28;20198;-70
2022/02/09 00:06:42;;;;;;;29.65;26.67;;;;;;;4.87;100.00;99669.31;2092652;28;20229;-70
2022/02/09 00:07:59;;;;;;;31.48;27.75;;;;;;;4.86;100.00;99657.13;2099133;28;20186;-70
2022/02/09 00:09:02;;;;;;;30.55;27.33;;;;;;;4.86;100.00;99668.50;2099858;28;20665;-70
2022/02/09 00:10:07;;;;;;;29.52;26.50;;;;;;;4.88;100.00;99692.88;2099772;28;20304;-70
2022/02/09 00:11:18;;;;;;;32.20;26.92;;;;;;;4.91;100.00;99655.34;2098397;28;20233;-70
2022/02/09 00:12:26;;;;;;;30.33;27.13;;;;;;;4.90;100.00;99671.47;2091985;28;20203;-70
2022/02/09 00:14:59;;;;;;;28.45;25.60;;;;;;;4.89;100.00;99670.66;2092828;28;20593;-70
2022/02/09 00:16:09;;;;;;;28.17;25.38;;;;;;;4.92;100.00;99669.38;2091804;28;20206;-70
2022/02/09 00:18:48;;;;;;;28.50;25.63;;;;;;;4.94;100.00;99673.38;2088223;28;20240;-70
2022/02/09 00:20:13;;;;;;;27.10;24.35;;;;;;;5.01;100.00;99678.50;2092151;28;20213;-70
2022/02/09 00:21:33;;;;;;;29.67;26.60;;;;;;;4.98;100.00;99681.63;2098657;28;20711;-70
2022/02/09 00:22:47;;;;;;;29.70;26.70;;;;;;;5.01;100.00;99694.34;2098252;28;20198;-70
2022/02/09 00:24:09;;;;;;;30.92;27.67;;;;;;;5.02;100.00;99680.88;2099244;28;20213;-70
2022/02/09 00:29:33;;;;;;;30.08;27.13;;;;;;;5.00;100.00;99693.56;2057592;28;20232;-70
2022/02/09 00:32:28;;;;;;;29.88;26.83;;;;;;;5.07;100.00;99704.75;2094068;28;20198;-71
2022/02/09 00:38:34;;;;;;;31.75;28.50;;;;;;;5.03;100.00;99708.13;2067820;28;20312;-69
2022/02/09 00:40:02;;;;;;;32.38;29.17;;;;;;;5.03;100.00;99698.34;2088171;28;20230;-70
2022/02/09 00:41:27;;;;;;;33.40;29.90;;;;;;;5.03;100.00;99724.00;2084106;28;20265;-70
2022/02/09 00:44:23;;;;;;;34.17;30.60;;;;;;;5.01;100.00;99712.88;2088983;28;20290;-69
2022/02/09 00:59:21;;;;;;;34.38;30.38;;;;;;;5.18;100.00;99734.78;2051485;28;20206;-68
2022/02/09 01:11:42;;;;;;;35.92;30.95;;;;;;;5.16;100.00;99734.25;2096820;28;20190;-69
2022/02/09 01:38:54;;;;;;;33.33;29.73;;;;;;;5.22;100.00;99764.22;2088459;28;20203;-69
2022/02/09 01:40:04;;;;;;;33.97;30.48;;;;;;;5.24;100.00;99772.72;2088389;28;20570;-70
2022/02/09 01:51:15;;;;;;;35.03;31.38;;;;;;;5.27;100.00;99766.91;2082848;28;20285;-70
2022/02/09 01:56:25;;;;;;;34.38;30.80;;;;;;;5.18;100.00;99765.75;2083120;28;20229;-70
2022/02/09 01:57:30;;;;;;;34.35;30.27;;;;;;;5.21;100.00;99770.53;2082885;28;20199;-69
2022/02/09 01:58:35;;;;;;;34.00;30.33;;;;;;;5.17;100.00;99766.78;2082663;28;20192;-70
2022/02/09 01:59:40;;;;;;;34.70;29.63;;;;;;;5.17;100.00;99757.00;2082508;28;20250;-69
2022/02/09 02:00:44;;;;;;;35.47;30.98;;;;;;;5.18;100.00;99774.47;2082545;28;20676;-69
2022/02/09 02:01:45;;;;;;;34.13;30.45;;;;;;;5.18;100.00;99771.03;2083279;28;20203;-69
2022/02/09 02:02:49;;;;;;;34.20;30.60;;;;;;;5.19;100.00;99772.63;2083123;28;20697;-70
2022/02/09 02:03:56;;;;;;;34.75;30.95;;;;;;;5.21;100.00;99775.81;2082730;28;20215;-70
2022/02/09 02:05:00;;;;;;;34.25;30.80;;;;;;;5.19;100.00;99776.06;2082777;28;20187;-69
2022/02/09 02:06:04;;;;;;;34.05;30.35;;;;;;;5.20;100.00;99782.16;2082568;28;20514;-69
2022/02/09 02:07:13;;;;;;;35.55;31.85;;;;;;;5.19;100.00;99769.97;2083219;28;20200;-70
2022/02/09 02:08:17;;;;;;;35.25;31.45;;;;;;;5.18;100.00;99782.41;2083297;28;20584;-70
2022/02/09 02:09:19;;;;;;;38.13;31.73;;;;;;;5.16;100.00;99783.69;2083274;28;20658;-70
2022/02/09 02:10:33;;;;;;;37.25;33.35;;;;;;;5.17;100.00;99785.31;2083141;28;20241;-70
2022/02/09 02:11:44;;;;;;;36.42;32.38;;;;;;;5.14;100.00;99773.38;2083379;28;20178;-70
2022/02/09 02:13:11;;;;;;;36.83;32.17;;;;;;;5.13;100.00;99779.69;2082947;28;20222;-71
2022/02/09 02:14:21;;;;;;;37.60;32.50;;;;;;;5.16;100.00;99773.91;2083135;28;20226;-70
2022/02/09 02:15:56;;;;;;;36.15;31.45;;;;;;;5.11;100.00;99774.63;2082425;28;20242;-71
2022/02/09 02:17:07;;;;;;;36.92;30.20;;;;;;;5.15;100.00;99782.91;2078905;28;20199;-70
2022/02/09 02:18:12;;;;;;;36.67;31.83;;;;;;;5.07;100.00;99778.03;2082523;28;20274;-70
2022/02/09 02:19:28;;;;;;;34.92;31.10;;;;;;;5.09;100.00;99791.78;2083006;28;20612;-69
2022/02/09 02:20:41;;;;;;;39.30;33.08;;;;;;;5.10;100.00;99777.53;2083033;28;20220;-70
2022/02/09 02:21:59;;;;;;;36.97;32.13;;;;;;;5.09;100.00;99768.78;2082759;28;20305;-70
2022/02/09 02:23:32;;;;;;;36.95;32.95;;;;;;;5.07;100.00;99778.81;2082352;28;20635;-70
2022/02/09 02:24:58;;;;;;;38.50;33.35;;;;;;;5.06;100.00;99766.63;2077287;28;20628;-70
2022/02/09 02:26:13;;;;;;;37.97;33.88;;;;;;;5.08;100.00;99771.69;2078738;28;20204;-71
2022/02/09 02:29:12;;;;;;;35.95;32.05;;;;;;;5.09;100.00;99779.38;2073896;28;20196;-69
2022/02/09 02:32:03;;;;;;;37.22;33.28;;;;;;;5.11;100.00;99789.69;2063727;28;20262;-69
2022/02/09 02:33:21;;;;;;;36.95;33.00;;;;;;;5.06;100.00;99777.22;2073920;28;20200;-70
2022/02/09 02:59:38;;;;;;;38.20;31.65;;;;;;;5.13;100.00;99792.94;2046185;29;20277;-71
2022/02/09 03:09:33;;;;;;;38.65;34.45;;;;;;;5.06;100.00;99793.09;2068583;28;20201;-70
2022/02/09 03:11:00;;;;;;;36.90;33.00;;;;;;;5.11;100.00;99800.28;2074335;28;20215;-70
2022/02/09 03:12:09;;;;;;;34.42;30.73;;;;;;;5.15;100.00;99795.31;2074540;28;20256;-70
2022/02/09 03:13:15;;;;;;;35.80;31.90;;;;;;;5.17;100.00;99799.31;2074175;28;20295;-70
2022/02/09 03:14:26;;;;;;;37.25;31.73;;;;;;;5.16;100.00;99807.50;2066746;28;20679;-70
2022/02/09 03:15:35;;;;;;;35.40;31.50;;;;;;;5.15;100.00;99805.91;2074122;28;20196;-70
2022/02/09 03:16:45;;;;;;;34.65;30.67;;;;;;;5.15;100.00;99819.94;2090040;28;20195;-70
2022/02/09 03:18:01;;;;;;;40.05;31.23;;;;;;;5.11;100.00;99811.66;2088236;28;20754;-71
2022/02/09 03:20:33;;;;;;;36.45;30.58;;;;;;;5.16;100.00;99824.19;2074253;28;20177;-71
2022/02/09 03:21:45;;;;;;;36.33;32.15;;;;;;;5.17;100.00;99809.09;2074158;28;20240;-70
2022/02/09 03:22:55;;;;;;;35.60;31.70;;;;;;;5.25;100.00;99811.34;2074338;28;20195;-70
2022/02/09 03:24:05;;;;;;;34.58;30.15;;;;;;;5.23;100.00;99816.09;2074288;28;20685;-70
2022/02/09 03:27:01;;;;;;;34.95;31.17;;;;;;;5.17;100.00;99822.34;2084417;28;20202;-70
2022/02/09 03:31:06;;;;;;;33.30;29.05;;;;;;;5.22;100.00;99819.78;2074009;28;20215;-71
2022/02/09 03:43:04;;;;;;;31.02;27.70;;;;;;;5.19;100.00;99809.66;2073996;28;20181;-70
2022/02/09 03:44:24;;;;;;;31.45;28.15;;;;;;;5.25;100.00;99800.75;2074244;28;20318;-71
2022/02/09 03:45:58;;;;;;;30.90;27.80;;;;;;;5.20;100.00;99806.75;2074235;28;20631;-70
2022/02/09 03:47:27;;;;;;;31.30;28.00;;;;;;;5.22;100.00;99804.69;2073549;28;20204;-70
2022/02/09 03:48:44;;;;;;;29.80;26.70;;;;;;;5.20;100.00;99811.25;2069180;28;20184;-70
2022/02/09 03:51:34;;;;;;;31.23;27.90;;;;;;;5.20;100.00;99804.13;2068014;28;20199;-70
2022/02/09 03:54:15;;;;;;;30.52;27.35;;;;;;;5.27;100.00;99806.59;2069628;28;20252;-70
2022/02/09 03:55:23;;;;;;;30.92;27.80;;;;;;;5.26;100.00;99811.09;2071924;28;20265;-70
2022/02/09 03:56:41;;;;;;;31.00;27.80;;;;;;;5.26;100.00;99810.28;2073513;28;20694;-70
2022/02/09 03:57:45;;;;;;;31.50;28.13;;;;;;;5.29;100.00;99817.75;2073709;28;20215;-70
2022/02/09 03:58:48;;;;;;;31.40;28.10;;;;;;;5.27;100.00;99814.53;2073329;28;20243;-70
2022/02/09 03:59:52;;;;;;;30.50;27.50;;;;;;;5.24;100.00;99804.47;2073611;28;20626;-70
2022/02/09 04:00:54;;;;;;;29.92;27.10;;;;;;;5.22;100.00;99812.63;2074176;28;20195;-70
2022/02/09 04:01:59;;;;;;;31.25;28.10;;;;;;;5.23;100.00;99813.44;2074152;28;20650;-70
2022/02/09 04:03:02;;;;;;;30.48;27.50;;;;;;;5.19;100.00;99823.69;2074122;28;20696;-70
2022/02/09 04:04:08;;;;;;;31.35;28.17;;;;;;;5.21;100.00;99813.69;2074238;28;20191;-70
2022/02/09 04:05:15;;;;;;;30.65;27.70;;;;;;;5.16;100.00;99813.59;2073440;28;20299;-71
2022/02/09 04:06:18;;;;;;;32.08;28.80;;;;;;;5.19;100.00;99828.19;2073184;28;20235;-70
2022/02/09 04:07:21;;;;;;;31.10;27.90;;;;;;;5.19;100.00;99822.88;2065400;28;20640;-70
2022/02/09 04:08:28;;;;;;;30.83;27.77;;;;;;;5.17;100.00;99825.78;2081827;28;20214;-70
2022/02/09 04:09:35;;;;;;;30.88;27.50;;;;;;;5.19;100.00;99822.88;2088220;28;20195;-70
2022/02/09 04:10:43;;;;;;;29.63;26.60;;;;;;;5.20;100.00;99820.00;2074025;28;20219;-70
2022/02/09 04:11:53;;;;;;;30.00;26.95;;;;;;;5.18;100.00;99816.00;2074096;28;20188;-70
2022/02/09 04:13:07;;;;;;;31.00;27.70;;;;;;;5.18;100.00;99821.28;2073383;28;20549;-70
2022/02/09 04:14:23;;;;;;;30.60;27.52;;;;;;;5.25;100.00;99821.94;2073551;28;20206;-70
2022/02/09 04:15:40;;;;;;;31.15;28.05;;;;;;;5.20;100.00;99819.19;2073337;28;20216;-69
2022/02/09 04:16:56;;;;;;;31.20;27.63;;;;;;;5.19;100.00;99809.66;2073845;28;20263;-70
2022/02/09 04:18:13;;;;;;;30.05;27.08;;;;;;;5.18;100.00;99810.69;2073619;28;20206;-70
2022/02/09 04:19:27;;;;;;;32.40;29.00;;;;;;;5.18;100.00;99821.28;2073592;28;20204;-69
2022/02/09 04:22:26;;;;;;;31.75;28.40;;;;;;;5.23;100.00;99813.44;2073979;28;20184;-69
2022/02/09 04:37:00;;;;;;;37.13;30.15;;;;;;;5.05;100.00;99817.94;2081874;28;20228;-71
2022/02/09 04:38:07;;;;;;;34.88;31.20;;;;;;;5.13;100.00;99823.88;2082212;28;20187;-70
2022/02/09 04:39:22;;;;;;;37.00;33.13;;;;;;;5.22;100.00;99817.94;2081941;28;20261;-70
2022/02/09 04:41:05;;;;;;;34.80;31.20;;;;;;;5.10;100.00;99818.00;2082151;28;20195;-71
2022/02/09 04:43:36;;;;;;;34.42;30.80;;;;;;;5.08;100.00;99829.88;2080729;28;20577;-70
2022/02/09 04:45:03;;;;;;;34.88;31.08;;;;;;;5.06;100.00;99824.03;2081792;28;20180;-70
2022/02/09 04:47:36;;;;;;;34.22;30.63;;;;;;;5.09;100.00;99819.03;2064791;28;20280;-71
2022/02/09 04:49:01;;;;;;;33.97;30.60;;;;;;;5.08;100.00;99822.72;2080711;28;20207;-71
2022/02/09 04:50:11;;;;;;;33.13;29.73;;;;;;;5.08;100.00;99828.03;2081658;28;20727;-71
2022/02/09 04:51:21;;;;;;;33.80;30.25;;;;;;;5.12;100.00;99828.31;2081296;28;20227;-71
2022/02/09 04:52:38;;;;;;;34.00;30.50;;;;;;;5.14;100.00;99828.13;2081710;28;20199;-71
2022/02/09 04:55:21;;;;;;;35.30;31.60;;;;;;;5.03;100.00;99821.84;2080672;28;20199;-72
2022/02/09 04:56:30;;;;;;;34.17;30.80;;;;;;;5.05;100.00;99825.06;2081351;28;20207;-71
2022/02/09 04:57:41;;;;;;;33.83;30.33;;;;;;;5.08;100.00;99824.56;2081552;28;20255;-72
2022/02/09 04:58:52;;;;;;;35.88;32.08;;;;;;;5.09;100.00;99823.53;2082001;28;20572;-71
2022/02/09 05:00:15;;;;;;;35.08;31.52;;;;;;;5.08;100.00;99828.03;2089566;28;20664;-71
2022/02/09 05:01:43;;;;;;;34.05;30.55;;;;;;;5.11;100.00;99827.53;2087148;28;20172;-71
2022/02/09 05:03:13;;;;;;;35.30;31.70;;;;;;;5.16;100.00;99829.47;2081040;28;20200;-71
2022/02/09 05:04:31;;;;;;;34.25;30.85;;;;;;;5.07;100.00;99831.72;2076542;28;20285;-71
2022/02/09 05:22:18;;;;;;;32.80;29.05;;;;;;;5.09;100.00;99839.41;2114630;27;20530;-69
2022/02/09 05:24:58;;;;;;;32.05;28.92;;;;;;;5.08;100.00;99833.31;2102196;28;20262;-70
2022/02/09 05:26:04;;;;;;;32.95;29.13;;;;;;;5.07;100.00;99830.91;2114002;28;20657;-72
2022/02/09 05:27:17;;;;;;;32.72;29.25;;;;;;;5.15;100.00;99827.06;2112888;28;20193;-71
2022/02/09 05:28:19;;;;;;;31.35;28.15;;;;;;;5.19;100.00;99839.56;2114116;28;20615;-74
2022/02/09 05:29:20;;;;;;;31.00;27.90;;;;;;;5.19;100.00;99833.47;2114313;28;20196;-70
2022/02/09 05:30:24;;;;;;;32.85;29.48;;;;;;;5.28;100.00;99840.75;2114297;28;20189;-70
2022/02/09 05:31:26;;;;;;;30.75;27.80;;;;;;;5.31;100.00;99820.97;2113550;28;20661;-71
2022/02/09 05:32:29;;;;;;;31.65;28.45;;;;;;;5.14;100.00;99831.56;2113721;28;20217;-71
2022/02/09 05:33:32;;;;;;;32.10;28.90;;;;;;;5.17;100.00;99825.78;2112397;28;20195;-71
2022/02/09 05:34:33;;;;;;;32.03;28.92;;;;;;;5.21;100.00;99831.38;2097050;28;20668;-71
2022/02/09 05:35:36;;;;;;;31.17;28.17;;;;;;;5.22;100.00;99835.66;2105287;28;20186;-71
2022/02/09 05:36:37;;;;;;;31.95;28.92;;;;;;;5.25;100.00;99843.88;2110589;28;20213;-72
2022/02/09 05:37:42;;;;;;;32.03;28.83;;;;;;;5.31;100.00;99834.19;2105167;28;20292;-67
2022/02/09 05:38:46;;;;;;;32.60;29.58;;;;;;;5.29;100.00;99828.31;2105539;28;20992;-67
2022/02/09 05:39:47;;;;;;;31.88;28.67;;;;;;;5.27;100.00;99828.56;2113687;28;20185;-67
2022/02/09 05:40:52;;;;;;;30.80;27.73;;;;;;;5.30;100.00;99829.91;2113180;28;20246;-70
2022/02/09 05:41:55;;;;;;;31.67;28.38;;;;;;;5.28;100.00;99830.16;2105375;28;20688;-70
2022/02/09 05:43:00;;;;;;;31.15;27.95;;;;;;;5.28;100.00;99842.59;2105619;28;20339;-71
2022/02/09 05:44:02;;;;;;;28.02;25.25;;;;;;;5.29;100.00;99829.13;2106048;28;20686;-71
2022/02/09 05:45:08;;;;;;;29.08;26.25;;;;;;;5.30;100.00;99843.97;2113460;28;20201;-71
2022/02/09 05:46:46;;;;;;;27.90;25.02;;;;;;;5.11;100.00;99842.59;2105698;28;20189;-71
2022/02/09 05:49:31;;;;;;;28.17;25.17;;;;;;;5.14;100.00;99849.28;2112616;28;20215;-71
2022/02/09 05:50:37;;;;;;;27.65;24.80;;;;;;;5.10;100.00;99841.00;2109179;28;20188;-71
2022/02/09 05:51:46;;;;;;;28.42;25.63;;;;;;;5.07;100.00;99837.00;2113345;28;20632;-72
2022/02/09 05:53:04;;;;;;;28.58;25.63;;;;;;;5.06;100.00;99845.97;2114429;28;20223;-72
2022/02/09 05:54:23;;;;;;;28.40;25.50;;;;;;;5.11;100.00;99846.03;2113269;28;20253;-72
2022/02/09 05:55:38;;;;;;;27.63;24.83;;;;;;;5.09;100.00;99845.50;2107835;28;20292;-72
2022/02/09 05:56:45;;;;;;;28.38;25.48;;;;;;;5.06;100.00;99843.34;2113666;28;20189;-71
2022/02/09 05:57:49;;;;;;;28.92;25.92;;;;;;;5.07;100.00;99852.06;2113406;28;20197;-71
2022/02/09 05:59:04;;;;;;;29.40;26.48;;;;;;;5.03;100.00;99843.78;2113485;28;20193;-72
2022/02/09 06:00:08;;;;;;;29.65;26.50;;;;;;;5.05;100.00;99851.50;2114062;28;20239;-72
2022/02/09 06:01:20;;;;;;;27.63;24.73;;;;;;;5.08;100.00;99858.97;2114048;28;20177;-72
2022/02/09 06:02:24;;;;;;;28.52;25.55;;;;;;;5.08;100.00;99851.81;2113949;28;20192;-71
2022/02/09 06:03:28;;;;;;;28.58;25.67;;;;;;;5.10;100.00;99862.97;2112806;28;20220;-72
2022/02/09 06:04:31;;;;;;;29.42;26.13;;;;;;;5.09;100.00;99860.56;2113446;28;20196;-72
2022/02/09 06:05:35;;;;;;;28.83;25.73;;;;;;;5.11;100.00;99867.19;2114056;28;20204;-71
2022/02/09 06:06:38;;;;;;;28.85;26.08;;;;;;;5.07;100.00;99874.03;2113863;28;20240;-71
2022/02/09 06:07:43;;;;;;;29.98;26.92;;;;;;;5.10;100.00;99870.91;2112851;28;20295;-71
2022/02/09 06:08:47;;;;;;;29.60;26.67;;;;;;;5.13;100.00;99866.19;2105189;28;20583;-71
2022/02/09 06:09:50;;;;;;;29.17;26.38;;;;;;;5.11;100.00;99864.56;2104721;28;20198;-70
2022/02/09 06:11:09;;;;;;;29.75;26.67;;;;;;;5.13;100.00;99863.53;2104841;28;20738;-70
2022/02/09 06:12:19;;;;;;;29.75;26.75;;;;;;;5.07;100.00;99862.66;2107134;28;20201;-70
2022/02/09 06:13:40;;;;;;;29.58;26.48;;;;;;;5.09;100.00;99871.94;2113723;28;20603;-71
2022/02/09 06:15:01;;;;;;;29.58;26.50;;;;;;;5.07;100.00;99868.75;2113332;28;20189;-71
2022/02/09 06:19:37;;;;;;;32.72;26.85;;;;;;;5.14;100.00;99881.00;2107205;28;20202;-70
2022/02/09 06:20:17;;;;;;;31.08;27.23;;;;;;;5.23;100.00;99877.72;2113546;28;20173;-74
2022/02/09 06:21:21;;;;;;;30.80;27.50;;;;;;;5.19;100.00;99886.38;2113136;28;20233;-72
2022/02/09 06:22:25;;;;;;;29.88;26.75;;;;;;;5.14;100.00;99871.22;2113838;28;20193;-68
2022/02/09 06:23:27;;;;;;;31.67;27.27;;;;;;;5.14;100.00;99873.88;2113000;28;20208;-68
2022/02/09 06:24:32;;;;;;;33.38;29.02;;;;;;;5.09;100.00;99866.66;2113299;28;20635;-70
2022/02/09 06:25:35;;;;;;;30.35;27.25;;;;;;;5.15;100.00;99859.59;2113910;28;20280;-71
2022/02/09 06:26:36;;;;;;;31.75;28.20;;;;;;;5.15;100.00;99869.38;2113195;28;20637;-70
2022/02/09 06:27:39;;;;;;;32.78;28.98;;;;;;;5.17;100.00;99873.38;2104504;28;20224;-71
2022/02/09 06:28:40;;;;;;;33.15;28.40;;;;;;;5.18;100.00;99867.06;2113210;28;20296;-70
2022/02/09 06:29:47;;;;;;;31.77;28.48;;;;;;;5.18;100.00;99874.19;2112350;28;20221;-70
2022/02/09 06:30:48;;;;;;;32.20;27.52;;;;;;;5.16;100.00;99866.50;2105208;28;20279;-70
2022/02/09 06:31:51;;;;;;;31.85;28.40;;;;;;;5.19;100.00;99870.50;2113213;28;20189;-70
2022/02/09 06:32:53;;;;;;;32.10;28.70;;;;;;;5.21;100.00;99876.34;2109350;28;20289;-69
2022/02/09 06:33:55;;;;;;;35.38;28.40;;;;;;;5.20;100.00;99869.44;2107497;28;20300;-70
2022/02/09 06:34:58;;;;;;;32.63;28.65;;;;;;;5.20;100.00;99877.38;2108218;28;20194;-71
2022/02/09 06:36:03;;;;;;;32.90;29.33;;;;;;;5.31;100.00;99884.47;2106269;28;20201;-71
2022/02/09 06:37:13;;;;;;;31.15;27.70;;;;;;;5.29;100.00;99886.53;2107657;28;20170;-71
2022/02/09 06:38:17;;;;;;;31.65;28.27;;;;;;;5.29;100.00;99883.88;2107412;28;20201;-71
2022/02/09 06:39:20;;;;;;;32.10;27.65;;;;;;;5.31;100.00;99885.25;2107588;28;20194;-67
2022/02/09 06:40:25;;;;;;;34.47;29.48;;;;;;;5.38;100.00;99879.78;2108140;28;20181;-71
2022/02/09 06:41:28;;;;;;;34.38;29.60;;;;;;;5.37;100.00;99881.63;2107957;28;20192;-69
2022/02/09 06:42:34;;;;;;;33.67;29.50;;;;;;;5.36;100.00;99880.03;2107066;28;20221;-70
2022/02/09 06:43:36;;;;;;;36.20;29.85;;;;;;;5.42;100.00;99880.94;2107468;28;20185;-69
2022/02/09 06:44:39;;;;;;;32.47;28.80;;;;;;;5.38;100.00;99885.06;2108069;28;20201;-69
2022/02/09 06:45:43;;;;;;;35.28;29.75;;;;;;;5.34;100.00;99886.63;2106920;28;20197;-69
2022/02/09 06:46:47;;;;;;;32.75;29.17;;;;;;;5.34;100.00;99883.97;2107482;28;20225;-71
2022/02/09 06:47:50;;;;;;;33.22;29.58;;;;;;;5.37;100.00;99889.56;2108078;28;20560;-71
2022/02/09 06:48:55;;;;;;;33.13;29.48;;;;;;;5.36;100.00;99890.63;2108157;28;20178;-71
2022/02/09 06:50:00;;;;;;;34.80;29.92;;;;;;;5.35;100.00;99890.88;2106622;28;20655;-71
2022/02/09 06:51:09;;;;;;;34.60;28.95;;;;;;;5.38;100.00;99891.16;2098568;28;20218;-71
2022/02/09 06:52:11;;;;;;;34.00;29.92;;;;;;;5.38;100.00;99890.38;2107562;28;20169;-71
2022/02/09 06:53:25;;;;;;;35.20;30.42;;;;;;;5.36;100.00;99884.53;2108006;28;20216;-71
2022/02/09 06:54:30;;;;;;;35.50;30.52;;;;;;;5.39;100.00;99884.88;2107056;28;20232;-71
2022/02/09 06:55:43;;;;;;;39.38;30.67;;;;;;;5.35;100.00;99880.28;2099300;28;20202;-71
2022/02/09 06:57:01;;;;;;;36.92;30.52;;;;;;;5.39;100.00;99881.41;2100353;28;20190;-71
2022/02/09 06:58:05;;;;;;;37.75;30.05;;;;;;;5.43;100.00;99879.09;2107836;28;20551;-72
2022/02/09 06:59:12;;;;;;;36.75;30.30;;;;;;;5.40;100.00;99877.72;2107244;28;20202;-71
2022/02/09 07:00:15;;;;;;;38.55;30.23;;;;;;;5.37;100.00;99878.19;2107715;28;20269;-72
2022/02/09 07:01:16;;;;;;;34.58;30.23;;;;;;;5.39;100.00;99876.13;2106940;28;20716;-72
2022/02/09 07:02:19;;;;;;;35.92;30.05;;;;;;;5.43;100.00;99871.94;2098528;28;20236;-71
2022/02/09 07:03:20;;;;;;;36.60;30.35;;;;;;;5.46;100.00;99874.09;2098703;28;20202;-71
2022/02/09 07:04:22;;;;;;;44.75;29.55;;;;;;;5.47;100.00;99878.34;2098930;28;20682;-71
2022/02/09 07:05:23;;;;;;;37.95;30.50;;;;;;;5.47;100.00;99877.53;2107305;28;20198;-71
2022/02/09 07:06:26;;;;;;;36.55;29.83;;;;;;;5.53;100.00;99884.53;2106922;28;20618;-71
2022/02/09 07:07:29;;;;;;;35.05;30.25;;;;;;;5.57;100.00;99881.16;2107237;28;20246;-71
2022/02/09 07:08:30;;;;;;;38.42;29.65;;;;;;;5.58;100.00;99885.41;2107544;28;20550;-71
2022/02/09 07:09:34;;;;;;;35.95;30.52;;;;;;;5.60;100.00;99878.00;2107220;28;20532;-69
2022/02/09 07:10:37;;;;;;;36.75;30.75;;;;;;;5.57;100.00;99883.81;2099230;28;20194;-75
2022/02/09 07:11:39;;;;;;;35.17;30.20;;;;;;;5.61;100.00;99876.16;2107355;28;20193;-75
2022/02/09 07:12:41;;;;;;;36.15;30.48;;;;;;;5.54;100.00;99863.09;2106827;28;20204;-75
2022/02/09 07:13:45;;;;;;;36.58;31.52;;;;;;;5.62;100.00;99867.97;2107337;28;20701;-74
2022/02/09 07:14:49;;;;;;;34.38;29.67;;;;;;;5.63;100.00;99866.94;2106690;28;20202;-75
2022/02/09 07:15:54;;;;;;;36.22;30.65;;;;;;;5.65;100.00;99867.50;2107359;28;20272;-73
2022/02/09 07:16:58;;;;;;;38.83;31.10;;;;;;;5.68;100.00;99882.91;2107857;28;20193;-73
2022/02/09 07:18:05;;;;;;;34.85;28.65;;;;;;;5.74;100.00;99867.09;2107851;28;20218;-74
2022/02/09 07:19:09;;;;;;;36.03;30.25;;;;;;;5.76;100.00;99880.88;2108120;28;20184;-73
2022/02/09 07:20:16;;;;;;;35.80;29.48;;;;;;;5.80;100.00;99876.69;2107785;28;20240;-73
2022/02/09 07:21:25;;;;;;;34.42;29.30;;;;;;;5.81;100.00;99891.53;2107121;28;20238;-75
2022/02/09 07:22:28;;;;;;;33.60;29.73;;;;;;;5.83;100.00;99886.81;2107130;28;20671;-74
2022/02/09 07:23:36;;;;;;;33.95;29.98;;;;;;;5.81;100.00;99880.94;2107430;28;20235;-74
2022/02/09 07:24:39;;;;;;;41.45;30.58;;;;;;;5.83;100.00;99881.53;2108040;28;20265;-74
2022/02/09 07:25:47;;;;;;;33.47;29.80;;;;;;;5.85;100.00;99890.00;2107833;28;20192;-73
2022/02/09 07:27:01;;;;;;;37.15;30.30;;;;;;;5.83;100.00;99892.91;2107983;28;20174;-74
2022/02/09 07:28:05;;;;;;;33.65;28.73;;;;;;;5.89;100.00;99888.47;2108097;28;20174;-73
2022/02/09 07:29:11;;;;;;;34.00;29.08;;;;;;;5.90;100.00;99890.06;2107025;28;20193;-74
2022/02/09 07:30:13;;;;;;;34.38;29.80;;;;;;;5.88;100.00;99886.88;2107400;28;20174;-69
2022/02/09 07:31:16;;;;;;;34.75;28.98;;;;;;;5.82;100.00;99882.53;2106712;28;20255;-72
2022/02/09 07:32:18;;;;;;;35.35;28.60;;;;;;;5.83;100.00;99884.97;2098558;28;20233;-72
2022/02/09 07:33:21;;;;;;;31.50;28.10;;;;;;;5.87;100.00;99883.41;2107354;28;20189;-72
2022/02/09 07:34:27;;;;;;;34.50;29.27;;;;;;;5.93;100.00;99890.44;2107013;28;20205;-68
2022/02/09 07:35:29;;;;;;;33.03;28.40;;;;;;;5.89;100.00;99885.81;2099177;28;20202;-74
2022/02/09 07:36:35;;;;;;;36.45;29.17;;;;;;;5.94;100.00;99881.44;2098421;28;20634;-73
2022/02/09 07:37:37;;;;;;;35.45;29.75;;;;;;;5.93;100.00;99887.78;2099270;28;20210;-71
2022/02/09 07:38:41;;;;;;;33.13;29.48;;;;;;;5.93;100.00;99881.69;2098299;28;20202;-73
2022/02/09 07:39:43;;;;;;;36.42;31.15;;;;;;;5.95;100.00;99875.09;2106761;28;20189;-74
2022/02/09 07:40:47;;;;;;;33.33;29.23;;;;;;;5.96;100.00;99894.44;2106161;28;20231;-73
2022/02/09 07:41:51;;;;;;;34.90;29.08;;;;;;;5.99;100.00;99883.34;2106962;28;20186;-72
2022/02/09 07:42:55;;;;;;;39.72;29.92;;;;;;;5.91;100.00;99895.19;2106933;28;20193;-72
2022/02/09 07:44:19;;;;;;;34.30;28.77;;;;;;;5.95;100.00;99890.19;2100353;28;20182;-72
2022/02/09 07:46:02;;;;;;;34.80;28.55;;;;;;;5.95;100.00;99890.97;2106638;28;20553;-73
2022/02/09 07:47:22;;;;;;;35.03;29.67;;;;;;;6.03;100.00;99887.09;2105957;28;20279;-73
2022/02/09 07:48:41;;;;;;;35.80;29.73;;;;;;;6.07;100.00;99888.19;2101142;28;20198;-73
2022/02/09 07:50:03;;;;;;;33.28;27.88;;;;;;;6.07;100.00;99885.56;2107407;28;20264;-72
2022/02/09 07:51:16;;;;;;;33.33;27.65;;;;;;;6.17;100.00;99888.34;2105867;28;20706;-73
2022/02/09 07:52:26;;;;;;;32.05;27.27;;;;;;;6.20;100.00;99884.41;2107092;28;20173;-72
2022/02/09 07:53:37;;;;;;;36.38;29.73;;;;;;;6.22;100.00;99879.66;2107743;28;20194;-73
2022/02/09 07:54:40;;;;;;;30.90;27.48;;;;;;;6.19;100.00;99886.25;2107707;28;20702;-75
2022/02/09 07:55:42;;;;;;;31.20;27.65;;;;;;;6.21;100.00;99884.16;2107495;28;20272;-75
2022/02/09 07:56:48;;;;;;;34.15;29.02;;;;;;;6.23;100.00;99881.25;2106832;28;20226;-72
2022/02/09 07:57:49;;;;;;;37.33;28.20;;;;;;;6.23;100.00;99890.00;2099103;28;20660;-75
2022/02/09 07:58:53;;;;;;;29.65;26.58;;;;;;;6.21;100.00;99888.66;2106937;28;20573;-75
2022/02/09 07:59:57;;;;;;;32.88;27.35;;;;;;;6.20;100.00;99881.75;2106741;28;20205;-77
2022/02/09 08:00:58;;;;;;;32.42;28.10;;;;;;;6.20;100.00;99889.69;2106858;28;20718;-75
2022/02/09 08:02:02;;;;;;;34.53;28.13;;;;;;;6.24;100.00;99883.66;2106273;28;20691;-76
2022/02/09 08:03:04;;;;;;;31.10;27.90;;;;;;;6.30;100.00;99883.72;2107076;28;20189;-76
2022/02/09 08:04:07;;;;;;;33.03;26.92;;;;;;;6.29;100.00;99885.56;2107460;28;20561;-75
2022/02/09 08:05:12;;;;;;;30.88;27.58;;;;;;;6.36;100.00;99886.19;2107560;28;20200;-73
2022/02/09 08:06:13;;;;;;;30.98;27.52;;;;;;;6.33;100.00;99886.66;2106928;28;20229;-75
2022/02/09 08:07:15;;;;;;;33.75;27.17;;;;;;;6.36;100.00;99872.13;2107544;28;20185;-75
2022/02/09 08:08:17;;;;;;;30.08;26.88;;;;;;;6.36;100.00;99874.78;2106253;28;20210;-77
2022/02/09 08:09:28;;;;;;;34.83;27.63;;;;;;;6.29;100.00;99869.66;2097960;28;20251;-75
2022/02/09 08:10:40;;;;;;;27.80;24.85;;;;;;;6.32;100.00;99879.75;2107225;28;20182;-75
2022/02/09 08:11:52;;;;;;;31.25;25.73;;;;;;;6.32;100.00;99884.28;2106242;28;20201;-74
2022/02/09 08:24:09;;;;;;;28.40;25.48;;;;;;;6.56;100.00;99879.50;2106947;28;20274;-72
2022/02/09 08:26:51;;;;;;;32.05;26.58;;;;;;;6.59;100.00;99879.78;2100859;28;20252;-72
2022/02/09 08:29:22;;;;;;;28.65;25.25;;;;;;;6.60;100.00;99876.09;2107441;28;20537;-76
2022/02/09 08:30:46;;;;;;;29.80;24.38;;;;;;;6.66;100.00;99876.97;2106343;28;20568;-77
2022/02/09 08:33:17;;;;;;;31.90;26.35;;;;;;;6.68;100.00;99872.19;2100790;28;20186;-72